sensor_id;sensor_type;location;lat;lon;timestamp;P1;durP1;ratioP1;P2;durP2;ratioP2
86011;SDS011;76591;42.170;27.850;2024-03-17T00:00:19;8.73;;;3.80;;
86011;SDS011;76591;42.170;27.850;2024-03-17T00:02:45;8.20;;;4.53;;
86011;SDS011;76591;42.170;27.850;2024-03-17T00:05:12;8.80;;;3.80;;
86011;SDS011;76591;42.170;27.850;2024-03-17T00:07:38;11.73;;;5.90;;
86011;SDS011;76591;42.170;27.850;2024-03-17T00:10:04;11.80;;;4.40;;
86011;SDS011;76591;42.170;27.850;2024-03-17T00:12:32;7.77;;;3.23;;
86011;SDS011;76591;42.170;27.850;2024-03-17T00:14:58;8.87;;;4.37;;
86011;SDS011;76591;42.170;27.850;2024-03-17T00:17:24;11.70;;;4.60;;
86011;SDS011;76591;42.170;27.850;2024-03-17T00:19:50;12.60;;;4.77;;
86011;SDS011;76591;42.170;27.850;2024-03-17T00:22:16;11.43;;;4.90;;
86011;SDS011;76591;42.170;27.850;2024-03-17T00:24:42;13.67;;;4.87;;
86011;SDS011;76591;42.170;27.850;2024-03-17T00:27:09;12.83;;;5.53;;
86011;SDS011;76591;42.170;27.850;2024-03-17T00:29:36;10.03;;;4.23;;
86011;SDS011;76591;42.170;27.850;2024-03-17T00:32:02;24.67;;;8.30;;
86011;SDS011;76591;42.170;27.850;2024-03-17T00:34:28;18.23;;;6.60;;
86011;SDS011;76591;42.170;27.850;2024-03-17T00:36:54;14.33;;;5.97;;
86011;SDS011;76591;42.170;27.850;2024-03-17T00:39:19;9.77;;;4.37;;
86011;SDS011;76591;42.170;27.850;2024-03-17T00:41:45;9.93;;;4.73;;
86011;SDS011;76591;42.170;27.850;2024-03-17T00:44:10;10.60;;;5.07;;
86011;SDS011;76591;42.170;27.850;2024-03-17T00:46:36;8.77;;;4.27;;
86011;SDS011;76591;42.170;27.850;2024-03-17T00:49:01;10.77;;;4.53;;
86011;SDS011;76591;42.170;27.850;2024-03-17T00:51:27;10.63;;;4.27;;
86011;SDS011;76591;42.170;27.850;2024-03-17T00:53:53;15.23;;;5.37;;
86011;SDS011;76591;42.170;27.850;2024-03-17T00:56:18;11.80;;;5.80;;
86011;SDS011;76591;42.170;27.850;2024-03-17T00:58:44;10.07;;;5.23;;
86011;SDS011;76591;42.170;27.850;2024-03-17T01:01:12;7.53;;;4.00;;
86011;SDS011;76591;42.170;27.850;2024-03-17T01:03:37;6.03;;;3.27;;
86011;SDS011;76591;42.170;27.850;2024-03-17T01:06:03;13.23;;;5.40;;
86011;SDS011;76591;42.170;27.850;2024-03-17T01:08:29;25.10;;;8.33;;
86011;SDS011;76591;42.170;27.850;2024-03-17T01:10:55;17.93;;;6.53;;
86011;SDS011;76591;42.170;27.850;2024-03-17T01:13:21;8.83;;;4.93;;
86011;SDS011;76591;42.170;27.850;2024-03-17T01:15:50;17.67;;;6.20;;
86011;SDS011;76591;42.170;27.850;2024-03-17T01:18:17;13.77;;;5.93;;
86011;SDS011;76591;42.170;27.850;2024-03-17T01:20:42;17.10;;;5.83;;
86011;SDS011;76591;42.170;27.850;2024-03-17T01:23:08;15.43;;;6.33;;
86011;SDS011;76591;42.170;27.850;2024-03-17T01:25:33;12.20;;;5.43;;
86011;SDS011;76591;42.170;27.850;2024-03-17T01:28:05;9.70;;;4.90;;
86011;SDS011;76591;42.170;27.850;2024-03-17T01:30:31;14.77;;;5.00;;
86011;SDS011;76591;42.170;27.850;2024-03-17T01:32:58;14.57;;;6.07;;
86011;SDS011;76591;42.170;27.850;2024-03-17T01:35:25;17.77;;;6.60;;
86011;SDS011;76591;42.170;27.850;2024-03-17T01:37:51;17.53;;;5.67;;
86011;SDS011;76591;42.170;27.850;2024-03-17T01:40:16;15.43;;;4.80;;
86011;SDS011;76591;42.170;27.850;2024-03-17T01:42:42;14.90;;;5.67;;
86011;SDS011;76591;42.170;27.850;2024-03-17T01:47:46;18.73;;;6.83;;
86011;SDS011;76591;42.170;27.850;2024-03-17T01:50:11;17.37;;;7.47;;
86011;SDS011;76591;42.170;27.850;2024-03-17T01:52:38;20.83;;;8.50;;
86011;SDS011;76591;42.170;27.850;2024-03-17T01:55:04;16.33;;;7.53;;
86011;SDS011;76591;42.170;27.850;2024-03-17T01:57:30;17.40;;;6.90;;
86011;SDS011;76591;42.170;27.850;2024-03-17T01:59:56;17.93;;;6.97;;
86011;SDS011;76591;42.170;27.850;2024-03-17T02:02:23;17.10;;;5.87;;
86011;SDS011;76591;42.170;27.850;2024-03-17T02:04:49;13.23;;;5.37;;
86011;SDS011;76591;42.170;27.850;2024-03-17T02:07:15;24.67;;;9.57;;
86011;SDS011;76591;42.170;27.850;2024-03-17T02:09:41;19.23;;;6.63;;
86011;SDS011;76591;42.170;27.850;2024-03-17T02:12:08;30.70;;;8.93;;
86011;SDS011;76591;42.170;27.850;2024-03-17T02:14:34;27.13;;;9.97;;
86011;SDS011;76591;42.170;27.850;2024-03-17T02:17:00;31.47;;;10.57;;
86011;SDS011;76591;42.170;27.850;2024-03-17T02:19:27;16.47;;;8.67;;
86011;SDS011;76591;42.170;27.850;2024-03-17T02:21:53;20.43;;;8.27;;
86011;SDS011;76591;42.170;27.850;2024-03-17T02:24:18;22.43;;;7.80;;
86011;SDS011;76591;42.170;27.850;2024-03-17T02:26:44;25.20;;;9.23;;
86011;SDS011;76591;42.170;27.850;2024-03-17T02:29:09;19.60;;;7.33;;
86011;SDS011;76591;42.170;27.850;2024-03-17T02:31:35;20.07;;;7.07;;
86011;SDS011;76591;42.170;27.850;2024-03-17T02:34:01;12.20;;;5.13;;
86011;SDS011;76591;42.170;27.850;2024-03-17T02:36:26;17.67;;;6.23;;
86011;SDS011;76591;42.170;27.850;2024-03-17T02:38:52;21.67;;;5.63;;
86011;SDS011;76591;42.170;27.850;2024-03-17T02:41:56;12.97;;;4.83;;
86011;SDS011;76591;42.170;27.850;2024-03-17T02:44:21;12.83;;;5.03;;
86011;SDS011;76591;42.170;27.850;2024-03-17T02:46:47;14.60;;;5.87;;
86011;SDS011;76591;42.170;27.850;2024-03-17T02:49:13;15.87;;;6.83;;
86011;SDS011;76591;42.170;27.850;2024-03-17T02:51:39;17.00;;;6.17;;
86011;SDS011;76591;42.170;27.850;2024-03-17T02:54:05;12.90;;;5.43;;
86011;SDS011;76591;42.170;27.850;2024-03-17T02:56:31;10.50;;;4.83;;
86011;SDS011;76591;42.170;27.850;2024-03-17T02:58:57;8.57;;;5.00;;
86011;SDS011;76591;42.170;27.850;2024-03-17T03:01:22;12.97;;;5.20;;
86011;SDS011;76591;42.170;27.850;2024-03-17T03:03:48;13.03;;;5.50;;
86011;SDS011;76591;42.170;27.850;2024-03-17T03:06:14;14.97;;;5.87;;
86011;SDS011;76591;42.170;27.850;2024-03-17T03:08:43;15.13;;;5.47;;
86011;SDS011;76591;42.170;27.850;2024-03-17T03:11:10;12.57;;;5.07;;
86011;SDS011;76591;42.170;27.850;2024-03-17T03:13:37;11.87;;;5.70;;
86011;SDS011;76591;42.170;27.850;2024-03-17T03:16:08;13.67;;;5.77;;
86011;SDS011;76591;42.170;27.850;2024-03-17T03:18:39;19.63;;;6.53;;
86011;SDS011;76591;42.170;27.850;2024-03-17T03:21:05;34.30;;;9.50;;
86011;SDS011;76591;42.170;27.850;2024-03-17T03:23:31;26.27;;;10.40;;
86011;SDS011;76591;42.170;27.850;2024-03-17T03:25:57;23.17;;;9.70;;
86011;SDS011;76591;42.170;27.850;2024-03-17T03:28:24;19.10;;;7.77;;
86011;SDS011;76591;42.170;27.850;2024-03-17T03:30:51;39.23;;;12.07;;
86011;SDS011;76591;42.170;27.850;2024-03-17T03:33:18;28.90;;;12.60;;
86011;SDS011;76591;42.170;27.850;2024-03-17T03:35:44;25.37;;;9.53;;
86011;SDS011;76591;42.170;27.850;2024-03-17T03:38:11;16.93;;;6.63;;
86011;SDS011;76591;42.170;27.850;2024-03-17T03:40:38;17.37;;;7.27;;
86011;SDS011;76591;42.170;27.850;2024-03-17T03:43:04;12.30;;;6.23;;
86011;SDS011;76591;42.170;27.850;2024-03-17T03:45:30;15.97;;;5.10;;
86011;SDS011;76591;42.170;27.850;2024-03-17T03:47:55;13.60;;;5.27;;
86011;SDS011;76591;42.170;27.850;2024-03-17T03:50:21;11.30;;;6.03;;
86011;SDS011;76591;42.170;27.850;2024-03-17T03:52:48;9.13;;;4.67;;
86011;SDS011;76591;42.170;27.850;2024-03-17T03:55:15;14.40;;;5.20;;
86011;SDS011;76591;42.170;27.850;2024-03-17T03:57:42;7.77;;;4.00;;
86011;SDS011;76591;42.170;27.850;2024-03-17T04:00:11;10.53;;;4.43;;
86011;SDS011;76591;42.170;27.850;2024-03-17T04:02:41;9.37;;;4.07;;
86011;SDS011;76591;42.170;27.850;2024-03-17T04:05:08;23.13;;;6.80;;
86011;SDS011;76591;42.170;27.850;2024-03-17T04:07:34;15.57;;;6.47;;
86011;SDS011;76591;42.170;27.850;2024-03-17T04:10:01;65.10;;;16.13;;
86011;SDS011;76591;42.170;27.850;2024-03-17T04:12:27;42.43;;;14.40;;
86011;SDS011;76591;42.170;27.850;2024-03-17T04:14:53;25.27;;;10.60;;
86011;SDS011;76591;42.170;27.850;2024-03-17T04:17:20;25.33;;;10.73;;
86011;SDS011;76591;42.170;27.850;2024-03-17T04:19:52;31.83;;;12.07;;
86011;SDS011;76591;42.170;27.850;2024-03-17T04:22:18;32.07;;;13.43;;
86011;SDS011;76591;42.170;27.850;2024-03-17T04:24:45;34.27;;;13.60;;
86011;SDS011;76591;42.170;27.850;2024-03-17T04:27:13;42.67;;;14.20;;
86011;SDS011;76591;42.170;27.850;2024-03-17T04:29:39;37.50;;;10.53;;
86011;SDS011;76591;42.170;27.850;2024-03-17T04:32:05;24.33;;;9.70;;
86011;SDS011;76591;42.170;27.850;2024-03-17T04:34:31;14.60;;;8.60;;
86011;SDS011;76591;42.170;27.850;2024-03-17T04:36:58;21.53;;;9.23;;
86011;SDS011;76591;42.170;27.850;2024-03-17T04:39:24;26.53;;;9.53;;
86011;SDS011;76591;42.170;27.850;2024-03-17T04:41:50;24.67;;;11.20;;
86011;SDS011;76591;42.170;27.850;2024-03-17T04:44:16;38.87;;;14.33;;
86011;SDS011;76591;42.170;27.850;2024-03-17T04:46:42;29.80;;;11.93;;
86011;SDS011;76591;42.170;27.850;2024-03-17T04:49:08;26.13;;;9.40;;
86011;SDS011;76591;42.170;27.850;2024-03-17T04:51:34;26.03;;;8.80;;
86011;SDS011;76591;42.170;27.850;2024-03-17T04:54:00;24.97;;;9.97;;
86011;SDS011;76591;42.170;27.850;2024-03-17T04:56:30;20.43;;;8.67;;
86011;SDS011;76591;42.170;27.850;2024-03-17T04:58:56;12.37;;;5.63;;
86011;SDS011;76591;42.170;27.850;2024-03-17T05:01:22;12.17;;;4.93;;
86011;SDS011;76591;42.170;27.850;2024-03-17T05:03:48;9.20;;;4.60;;
86011;SDS011;76591;42.170;27.850;2024-03-17T05:06:16;19.93;;;8.33;;
86011;SDS011;76591;42.170;27.850;2024-03-17T05:08:42;21.77;;;8.67;;
86011;SDS011;76591;42.170;27.850;2024-03-17T05:11:08;14.87;;;6.53;;
86011;SDS011;76591;42.170;27.850;2024-03-17T05:13:35;16.83;;;7.60;;
86011;SDS011;76591;42.170;27.850;2024-03-17T05:16:03;21.33;;;8.63;;
86011;SDS011;76591;42.170;27.850;2024-03-17T05:18:29;12.90;;;7.27;;
86011;SDS011;76591;42.170;27.850;2024-03-17T05:23:25;15.30;;;9.23;;
86011;SDS011;76591;42.170;27.850;2024-03-17T05:25:52;19.40;;;8.83;;
86011;SDS011;76591;42.170;27.850;2024-03-17T05:28:17;17.17;;;9.70;;
86011;SDS011;76591;42.170;27.850;2024-03-17T05:30:43;18.83;;;8.17;;
86011;SDS011;76591;42.170;27.850;2024-03-17T05:33:09;38.30;;;14.90;;
86011;SDS011;76591;42.170;27.850;2024-03-17T05:35:35;16.20;;;8.47;;
86011;SDS011;76591;42.170;27.850;2024-03-17T05:38:00;13.93;;;6.83;;
86011;SDS011;76591;42.170;27.850;2024-03-17T05:40:26;18.48;;;7.22;;
86011;SDS011;76591;42.170;27.850;2024-03-17T05:42:51;9.32;;;5.68;;
86011;SDS011;76591;42.170;27.850;2024-03-17T05:45:17;23.23;;;6.97;;
86011;SDS011;76591;42.170;27.850;2024-03-17T05:47:43;14.35;;;6.22;;
86011;SDS011;76591;42.170;27.850;2024-03-17T05:50:08;14.05;;;6.72;;
86011;SDS011;76591;42.170;27.850;2024-03-17T05:52:34;15.73;;;6.47;;
86011;SDS011;76591;42.170;27.850;2024-03-17T05:55:00;16.63;;;6.93;;
86011;SDS011;76591;42.170;27.850;2024-03-17T05:57:25;11.73;;;6.60;;
86011;SDS011;76591;42.170;27.850;2024-03-17T05:59:51;15.25;;;7.22;;
86011;SDS011;76591;42.170;27.850;2024-03-17T06:02:17;7.93;;;4.35;;
86011;SDS011;76591;42.170;27.850;2024-03-17T06:04:44;5.95;;;3.33;;
86011;SDS011;76591;42.170;27.850;2024-03-17T06:07:09;8.73;;;3.38;;
86011;SDS011;76591;42.170;27.850;2024-03-17T06:09:35;35.65;;;11.43;;
86011;SDS011;76591;42.170;27.850;2024-03-17T06:12:01;21.33;;;10.50;;
86011;SDS011;76591;42.170;27.850;2024-03-17T06:14:26;12.00;;;6.43;;
86011;SDS011;76591;42.170;27.850;2024-03-17T06:16:52;9.35;;;4.25;;
86011;SDS011;76591;42.170;27.850;2024-03-17T06:19:17;6.93;;;3.60;;
86011;SDS011;76591;42.170;27.850;2024-03-17T06:21:43;6.13;;;3.17;;
86011;SDS011;76591;42.170;27.850;2024-03-17T06:24:09;5.68;;;3.13;;
86011;SDS011;76591;42.170;27.850;2024-03-17T06:26:34;8.77;;;4.55;;
86011;SDS011;76591;42.170;27.850;2024-03-17T06:29:00;9.50;;;3.80;;
86011;SDS011;76591;42.170;27.850;2024-03-17T06:31:26;12.93;;;3.97;;
86011;SDS011;76591;42.170;27.850;2024-03-17T06:33:52;7.65;;;4.10;;
86011;SDS011;76591;42.170;27.850;2024-03-17T06:36:18;9.40;;;5.25;;
86011;SDS011;76591;42.170;27.850;2024-03-17T06:38:43;9.13;;;4.57;;
86011;SDS011;76591;42.170;27.850;2024-03-17T06:41:09;13.25;;;4.68;;
86011;SDS011;76591;42.170;27.850;2024-03-17T06:43:35;6.60;;;3.28;;
86011;SDS011;76591;42.170;27.850;2024-03-17T06:46:01;6.00;;;3.38;;
86011;SDS011;76591;42.170;27.850;2024-03-17T06:48:27;7.25;;;3.45;;
86011;SDS011;76591;42.170;27.850;2024-03-17T06:50:54;7.97;;;4.75;;
86011;SDS011;76591;42.170;27.850;2024-03-17T06:53:20;12.55;;;5.47;;
86011;SDS011;76591;42.170;27.850;2024-03-17T06:56:05;8.77;;;4.93;;
86011;SDS011;76591;42.170;27.850;2024-03-17T06:58:31;10.45;;;4.85;;
86011;SDS011;76591;42.170;27.850;2024-03-17T07:00:58;9.68;;;5.18;;
86011;SDS011;76591;42.170;27.850;2024-03-17T07:03:25;8.07;;;5.05;;
86011;SDS011;76591;42.170;27.850;2024-03-17T07:05:51;10.75;;;4.88;;
86011;SDS011;76591;42.170;27.850;2024-03-17T07:08:18;13.65;;;5.88;;
86011;SDS011;76591;42.170;27.850;2024-03-17T07:11:06;9.95;;;4.65;;
86011;SDS011;76591;42.170;27.850;2024-03-17T07:13:33;8.55;;;3.85;;
86011;SDS011;76591;42.170;27.850;2024-03-17T07:16:00;6.97;;;4.03;;
86011;SDS011;76591;42.170;27.850;2024-03-17T07:18:27;5.82;;;3.75;;
86011;SDS011;76591;42.170;27.850;2024-03-17T07:20:56;8.35;;;3.75;;
86011;SDS011;76591;42.170;27.850;2024-03-17T07:23:23;6.93;;;3.63;;
86011;SDS011;76591;42.170;27.850;2024-03-17T07:25:52;9.25;;;4.07;;
86011;SDS011;76591;42.170;27.850;2024-03-17T07:28:19;7.80;;;4.13;;
86011;SDS011;76591;42.170;27.850;2024-03-17T07:30:51;6.63;;;3.33;;
86011;SDS011;76591;42.170;27.850;2024-03-17T07:33:19;5.32;;;2.30;;
86011;SDS011;76591;42.170;27.850;2024-03-17T07:35:49;9.85;;;4.10;;
86011;SDS011;76591;42.170;27.850;2024-03-17T07:38:23;9.48;;;3.92;;
86011;SDS011;76591;42.170;27.850;2024-03-17T07:40:59;11.90;;;5.18;;
86011;SDS011;76591;42.170;27.850;2024-03-17T07:43:26;11.32;;;4.78;;
86011;SDS011;76591;42.170;27.850;2024-03-17T07:45:57;5.28;;;3.35;;
86011;SDS011;76591;42.170;27.850;2024-03-17T07:48:22;10.25;;;4.45;;
86011;SDS011;76591;42.170;27.850;2024-03-17T07:50:59;12.65;;;3.60;;
86011;SDS011;76591;42.170;27.850;2024-03-17T07:53:34;6.97;;;3.67;;
86011;SDS011;76591;42.170;27.850;2024-03-17T07:58:34;7.97;;;3.97;;
86011;SDS011;76591;42.170;27.850;2024-03-17T08:01:02;7.65;;;4.20;;
86011;SDS011;76591;42.170;27.850;2024-03-17T08:03:29;9.75;;;4.30;;
86011;SDS011;76591;42.170;27.850;2024-03-17T08:05:56;5.60;;;2.97;;
86011;SDS011;76591;42.170;27.850;2024-03-17T08:08:23;8.00;;;3.75;;
86011;SDS011;76591;42.170;27.850;2024-03-17T08:10:49;6.97;;;3.47;;
86011;SDS011;76591;42.170;27.850;2024-03-17T08:13:19;9.63;;;4.22;;
86011;SDS011;76591;42.170;27.850;2024-03-17T08:15:45;6.65;;;3.65;;
86011;SDS011;76591;42.170;27.850;2024-03-17T08:18:12;6.53;;;2.92;;
86011;SDS011;76591;42.170;27.850;2024-03-17T08:20:38;8.02;;;3.75;;
86011;SDS011;76591;42.170;27.850;2024-03-17T08:23:05;7.30;;;3.38;;
86011;SDS011;76591;42.170;27.850;2024-03-17T08:25:35;5.85;;;3.13;;
86011;SDS011;76591;42.170;27.850;2024-03-17T08:28:01;11.35;;;4.30;;
86011;SDS011;76591;42.170;27.850;2024-03-17T08:30:27;11.98;;;5.40;;
86011;SDS011;76591;42.170;27.850;2024-03-17T08:32:52;9.50;;;4.03;;
86011;SDS011;76591;42.170;27.850;2024-03-17T08:35:18;12.27;;;4.53;;
86011;SDS011;76591;42.170;27.850;2024-03-17T08:37:44;9.52;;;4.72;;
86011;SDS011;76591;42.170;27.850;2024-03-17T08:40:10;9.13;;;4.30;;
86011;SDS011;76591;42.170;27.850;2024-03-17T08:42:37;8.63;;;4.00;;
86011;SDS011;76591;42.170;27.850;2024-03-17T08:45:02;11.07;;;5.57;;
86011;SDS011;76591;42.170;27.850;2024-03-17T08:47:29;13.02;;;5.72;;
86011;SDS011;76591;42.170;27.850;2024-03-17T08:49:54;16.27;;;4.20;;
86011;SDS011;76591;42.170;27.850;2024-03-17T08:52:20;13.75;;;4.97;;
86011;SDS011;76591;42.170;27.850;2024-03-17T08:54:46;9.68;;;4.93;;
86011;SDS011;76591;42.170;27.850;2024-03-17T08:57:13;8.80;;;3.92;;
86011;SDS011;76591;42.170;27.850;2024-03-17T08:59:39;8.02;;;3.72;;
86011;SDS011;76591;42.170;27.850;2024-03-17T09:02:05;14.73;;;4.47;;
86011;SDS011;76591;42.170;27.850;2024-03-17T09:04:31;8.68;;;4.35;;
86011;SDS011;76591;42.170;27.850;2024-03-17T09:06:57;9.57;;;4.35;;
86011;SDS011;76591;42.170;27.850;2024-03-17T09:09:23;9.75;;;4.38;;
86011;SDS011;76591;42.170;27.850;2024-03-17T09:11:49;9.00;;;4.93;;
86011;SDS011;76591;42.170;27.850;2024-03-17T09:14:16;8.63;;;4.05;;
86011;SDS011;76591;42.170;27.850;2024-03-17T09:16:42;14.10;;;5.93;;
86011;SDS011;76591;42.170;27.850;2024-03-17T09:19:08;12.55;;;6.03;;
86011;SDS011;76591;42.170;27.850;2024-03-17T09:21:34;11.25;;;5.43;;
86011;SDS011;76591;42.170;27.850;2024-03-17T09:23:59;16.92;;;5.85;;
86011;SDS011;76591;42.170;27.850;2024-03-17T09:26:25;14.55;;;6.07;;
86011;SDS011;76591;42.170;27.850;2024-03-17T09:28:51;10.98;;;4.88;;
86011;SDS011;76591;42.170;27.850;2024-03-17T09:31:16;9.75;;;4.57;;
86011;SDS011;76591;42.170;27.850;2024-03-17T09:33:42;13.15;;;5.30;;
86011;SDS011;76591;42.170;27.850;2024-03-17T09:36:08;10.80;;;4.55;;
86011;SDS011;76591;42.170;27.850;2024-03-17T09:38:39;9.90;;;4.15;;
86011;SDS011;76591;42.170;27.850;2024-03-17T09:41:07;12.25;;;4.47;;
86011;SDS011;76591;42.170;27.850;2024-03-17T09:43:47;11.52;;;4.95;;
86011;SDS011;76591;42.170;27.850;2024-03-17T09:46:14;12.30;;;4.85;;
86011;SDS011;76591;42.170;27.850;2024-03-17T09:48:42;10.32;;;4.55;;
86011;SDS011;76591;42.170;27.850;2024-03-17T09:51:15;13.90;;;4.38;;
86011;SDS011;76591;42.170;27.850;2024-03-17T09:53:52;10.20;;;4.45;;
86011;SDS011;76591;42.170;27.850;2024-03-17T09:56:21;8.85;;;4.20;;
86011;SDS011;76591;42.170;27.850;2024-03-17T09:58:47;10.38;;;4.18;;
86011;SDS011;76591;42.170;27.850;2024-03-17T10:01:14;10.27;;;4.70;;
86011;SDS011;76591;42.170;27.850;2024-03-17T10:03:45;9.13;;;4.55;;
86011;SDS011;76591;42.170;27.850;2024-03-17T10:06:14;10.52;;;4.40;;
86011;SDS011;76591;42.170;27.850;2024-03-17T10:08:42;9.32;;;4.15;;
86011;SDS011;76591;42.170;27.850;2024-03-17T10:11:09;10.30;;;5.18;;
86011;SDS011;76591;42.170;27.850;2024-03-17T10:13:36;11.73;;;4.72;;
86011;SDS011;76591;42.170;27.850;2024-03-17T10:16:01;8.43;;;4.50;;
86011;SDS011;76591;42.170;27.850;2024-03-17T10:18:28;9.43;;;4.53;;
86011;SDS011;76591;42.170;27.850;2024-03-17T10:20:53;9.00;;;4.30;;
86011;SDS011;76591;42.170;27.850;2024-03-17T10:23:23;6.72;;;3.80;;
86011;SDS011;76591;42.170;27.850;2024-03-17T10:25:49;11.07;;;4.00;;
86011;SDS011;76591;42.170;27.850;2024-03-17T10:28:16;8.02;;;4.10;;
86011;SDS011;76591;42.170;27.850;2024-03-17T10:31:06;10.30;;;4.68;;
86011;SDS011;76591;42.170;27.850;2024-03-17T10:33:34;11.93;;;5.10;;
86011;SDS011;76591;42.170;27.850;2024-03-17T10:36:00;10.93;;;4.85;;
86011;SDS011;76591;42.170;27.850;2024-03-17T10:38:27;12.68;;;4.32;;
86011;SDS011;76591;42.170;27.850;2024-03-17T10:40:53;8.50;;;3.97;;
86011;SDS011;76591;42.170;27.850;2024-03-17T10:43:19;8.68;;;4.85;;
86011;SDS011;76591;42.170;27.850;2024-03-17T10:45:51;10.20;;;4.60;;
86011;SDS011;76591;42.170;27.850;2024-03-17T10:48:19;12.90;;;4.53;;
86011;SDS011;76591;42.170;27.850;2024-03-17T10:50:49;10.98;;;3.45;;
86011;SDS011;76591;42.170;27.850;2024-03-17T10:53:19;13.68;;;4.97;;
86011;SDS011;76591;42.170;27.850;2024-03-17T10:56:13;12.48;;;4.65;;
86011;SDS011;76591;42.170;27.850;2024-03-17T10:58:44;9.23;;;4.10;;
86011;SDS011;76591;42.170;27.850;2024-03-17T11:01:16;6.28;;;3.85;;
86011;SDS011;76591;42.170;27.850;2024-03-17T11:03:45;6.78;;;3.60;;
86011;SDS011;76591;42.170;27.850;2024-03-17T11:06:12;12.23;;;4.85;;
86011;SDS011;76591;42.170;27.850;2024-03-17T11:08:38;9.50;;;4.60;;
86011;SDS011;76591;42.170;27.850;2024-03-17T11:11:07;15.70;;;5.00;;
86011;SDS011;76591;42.170;27.850;2024-03-17T11:13:34;9.63;;;4.65;;
86011;SDS011;76591;42.170;27.850;2024-03-17T11:16:01;10.95;;;4.82;;
86011;SDS011;76591;42.170;27.850;2024-03-17T11:18:34;16.67;;;4.32;;
86011;SDS011;76591;42.170;27.850;2024-03-17T11:21:07;17.15;;;5.22;;
86011;SDS011;76591;42.170;27.850;2024-03-17T11:24:07;7.78;;;3.83;;
86011;SDS011;76591;42.170;27.850;2024-03-17T11:26:43;11.40;;;4.18;;
86011;SDS011;76591;42.170;27.850;2024-03-17T11:29:23;9.32;;;4.20;;
86011;SDS011;76591;42.170;27.850;2024-03-17T11:31:52;9.50;;;4.32;;
86011;SDS011;76591;42.170;27.850;2024-03-17T11:34:27;11.30;;;4.47;;
86011;SDS011;76591;42.170;27.850;2024-03-17T11:36:58;7.82;;;3.78;;
86011;SDS011;76591;42.170;27.850;2024-03-17T11:42:18;8.52;;;3.60;;
86011;SDS011;76591;42.170;27.850;2024-03-17T11:47:41;9.85;;;4.07;;
86011;SDS011;76591;42.170;27.850;2024-03-17T11:50:08;6.18;;;2.90;;
86011;SDS011;76591;42.170;27.850;2024-03-17T11:52:36;7.85;;;3.53;;
86011;SDS011;76591;42.170;27.850;2024-03-17T11:55:02;9.82;;;4.18;;
86011;SDS011;76591;42.170;27.850;2024-03-17T11:57:28;8.07;;;3.80;;
86011;SDS011;76591;42.170;27.850;2024-03-17T11:59:55;10.77;;;3.97;;
86011;SDS011;76591;42.170;27.850;2024-03-17T12:02:22;8.30;;;4.25;;
86011;SDS011;76591;42.170;27.850;2024-03-17T12:04:51;8.88;;;4.88;;
86011;SDS011;76591;42.170;27.850;2024-03-17T12:07:18;7.10;;;4.07;;
86011;SDS011;76591;42.170;27.850;2024-03-17T12:09:49;12.43;;;4.95;;
86011;SDS011;76591;42.170;27.850;2024-03-17T12:12:17;10.05;;;4.20;;
86011;SDS011;76591;42.170;27.850;2024-03-17T12:14:44;8.90;;;4.22;;
86011;SDS011;76591;42.170;27.850;2024-03-17T12:17:11;10.30;;;4.57;;
86011;SDS011;76591;42.170;27.850;2024-03-17T12:19:39;9.27;;;4.60;;
86011;SDS011;76591;42.170;27.850;2024-03-17T12:22:05;7.40;;;3.90;;
86011;SDS011;76591;42.170;27.850;2024-03-17T12:24:32;11.20;;;5.07;;
86011;SDS011;76591;42.170;27.850;2024-03-17T12:27:04;11.73;;;4.57;;
86011;SDS011;76591;42.170;27.850;2024-03-17T12:29:31;9.27;;;4.30;;
86011;SDS011;76591;42.170;27.850;2024-03-17T12:32:02;7.97;;;3.97;;
86011;SDS011;76591;42.170;27.850;2024-03-17T12:34:36;9.82;;;4.25;;
86011;SDS011;76591;42.170;27.850;2024-03-17T12:37:02;11.35;;;5.10;;
86011;SDS011;76591;42.170;27.850;2024-03-17T12:39:32;10.10;;;4.03;;
86011;SDS011;76591;42.170;27.850;2024-03-17T12:42:06;9.70;;;4.25;;
86011;SDS011;76591;42.170;27.850;2024-03-17T12:44:39;10.05;;;4.03;;
86011;SDS011;76591;42.170;27.850;2024-03-17T12:47:19;7.82;;;3.47;;
86011;SDS011;76591;42.170;27.850;2024-03-17T12:49:50;8.63;;;4.43;;
86011;SDS011;76591;42.170;27.850;2024-03-17T12:52:30;7.15;;;3.40;;
86011;SDS011;76591;42.170;27.850;2024-03-17T12:55:00;8.18;;;4.10;;
86011;SDS011;76591;42.170;27.850;2024-03-17T12:57:45;7.95;;;4.03;;
86011;SDS011;76591;42.170;27.850;2024-03-17T13:00:30;8.48;;;4.00;;
86011;SDS011;76591;42.170;27.850;2024-03-17T13:03:02;8.10;;;3.97;;
86011;SDS011;76591;42.170;27.850;2024-03-17T13:05:31;10.65;;;3.85;;
86011;SDS011;76591;42.170;27.850;2024-03-17T13:07:58;9.65;;;4.38;;
86011;SDS011;76591;42.170;27.850;2024-03-17T13:10:25;8.65;;;4.28;;
86011;SDS011;76591;42.170;27.850;2024-03-17T13:12:58;7.60;;;3.63;;
86011;SDS011;76591;42.170;27.850;2024-03-17T13:15:28;9.88;;;4.13;;
86011;SDS011;76591;42.170;27.850;2024-03-17T13:18:00;8.57;;;3.67;;
86011;SDS011;76591;42.170;27.850;2024-03-17T13:20:25;9.38;;;4.03;;
86011;SDS011;76591;42.170;27.850;2024-03-17T13:22:51;9.95;;;4.63;;
86011;SDS011;76591;42.170;27.850;2024-03-17T13:25:18;6.78;;;4.07;;
86011;SDS011;76591;42.170;27.850;2024-03-17T13:27:49;7.22;;;3.90;;
86011;SDS011;76591;42.170;27.850;2024-03-17T13:30:16;9.60;;;4.13;;
86011;SDS011;76591;42.170;27.850;2024-03-17T13:32:43;12.77;;;5.03;;
86011;SDS011;76591;42.170;27.850;2024-03-17T13:35:19;7.78;;;4.38;;
86011;SDS011;76591;42.170;27.850;2024-03-17T13:37:45;14.13;;;4.53;;
86011;SDS011;76591;42.170;27.850;2024-03-17T13:40:13;10.02;;;4.25;;
86011;SDS011;76591;42.170;27.850;2024-03-17T13:42:51;10.00;;;3.60;;
86011;SDS011;76591;42.170;27.850;2024-03-17T13:45:18;17.00;;;4.68;;
86011;SDS011;76591;42.170;27.850;2024-03-17T13:50:29;15.02;;;6.05;;
86011;SDS011;76591;42.170;27.850;2024-03-17T13:52:55;9.77;;;4.75;;
86011;SDS011;76591;42.170;27.850;2024-03-17T13:55:22;8.85;;;4.28;;
86011;SDS011;76591;42.170;27.850;2024-03-17T13:57:50;12.55;;;4.22;;
86011;SDS011;76591;42.170;27.850;2024-03-17T14:00:21;14.93;;;4.82;;
86011;SDS011;76591;42.170;27.850;2024-03-17T14:02:49;11.95;;;4.50;;
86011;SDS011;76591;42.170;27.850;2024-03-17T14:05:17;11.98;;;4.72;;
86011;SDS011;76591;42.170;27.850;2024-03-17T14:07:44;8.82;;;3.90;;
86011;SDS011;76591;42.170;27.850;2024-03-17T14:10:11;9.88;;;4.35;;
86011;SDS011;76591;42.170;27.850;2024-03-17T14:12:38;8.45;;;4.03;;
86011;SDS011;76591;42.170;27.850;2024-03-17T14:15:04;12.30;;;5.68;;
86011;SDS011;76591;42.170;27.850;2024-03-17T14:17:31;13.45;;;4.82;;
86011;SDS011;76591;42.170;27.850;2024-03-17T14:19:57;10.55;;;4.90;;
86011;SDS011;76591;42.170;27.850;2024-03-17T14:22:23;11.60;;;4.75;;
86011;SDS011;76591;42.170;27.850;2024-03-17T14:24:49;13.15;;;6.03;;
86011;SDS011;76591;42.170;27.850;2024-03-17T14:27:15;21.55;;;5.57;;
86011;SDS011;76591;42.170;27.850;2024-03-17T14:29:41;16.15;;;5.57;;
86011;SDS011;76591;42.170;27.850;2024-03-17T14:32:09;10.05;;;4.95;;
86011;SDS011;76591;42.170;27.850;2024-03-17T14:34:34;10.68;;;4.70;;
86011;SDS011;76591;42.170;27.850;2024-03-17T14:37:02;14.00;;;5.78;;
86011;SDS011;76591;42.170;27.850;2024-03-17T14:39:29;12.68;;;5.28;;
86011;SDS011;76591;42.170;27.850;2024-03-17T14:41:58;14.57;;;5.18;;
86011;SDS011;76591;42.170;27.850;2024-03-17T14:44:23;11.65;;;5.38;;